Terminal Aerodrome Forecast
Issued by NWS Louisville, KY

Home | Current Version | Previous Version | Text Only | Print | Product List | Glossary On
Versions: 1 2 3 4 5 6 7 8 9 10 11 12 13 14 15 16
209
FTUS43 KLMK 190538
TAFBWG
TAF
KBWG 190538Z 1906/2006 23003KT P6SM FEW080 FEW250
     FM191500 23006KT P6SM SCT040 SCT200
     FM200100 00000KT P6SM FEW050 FEW200=

USA.gov is the U.S. government's official web portal to all federal, state and local government web resources and services.